Time;durP1;ratioP1;P1;durP2;ratioP2;P2;SDS_P1;SDS_P2;PMS_P1;PMS_P2;Temp;Humidity;BMP_temperature;BMP_pressure;BME280_temperature;BME280_humidity;BME280_pressure;Samples;Min_cycle;Max_cycle;Signal;HPM_P1;HPM_P2
2022/03/01 00:00:07;;;;;;;2.97;2.78;;;;;;;6.76;76.67;101065.16;4961427;28;20085;-50
2022/03/01 00:02:33;;;;;;;2.25;2.05;;;;;;;6.78;76.69;101072.91;4958214;28;20074;-49
2022/03/01 00:05:00;;;;;;;3.30;1.90;;;;;;;6.79;76.43;101082.41;4958189;28;20051;-47
2022/03/01 00:07:27;;;;;;;1.92;1.52;;;;;;;6.78;75.96;101071.22;4956865;28;20070;-47
2022/03/01 00:09:53;;;;;;;2.80;1.58;;;;;;;6.77;76.81;101074.63;4962075;28;20105;-45
2022/03/01 00:12:20;;;;;;;2.22;1.50;;;;;;;6.78;77.40;101076.38;4959395;28;20043;-49
2022/03/01 00:14:47;;;;;;;3.80;2.13;;;;;;;6.75;77.59;101076.28;4962238;28;20125;-51
2022/03/01 00:17:13;;;;;;;3.22;1.85;;;;;;;6.76;76.90;101082.31;4964671;28;20082;-49
2022/03/01 00:19:40;;;;;;;4.25;2.58;;;;;;;6.76;76.19;101082.31;4955028;28;21663;-48
2022/03/01 00:22:06;;;;;;;3.13;2.45;;;;;;;6.76;76.92;101087.47;4969346;28;20495;-50
2022/03/01 00:24:33;;;;;;;4.57;2.28;;;;;;;6.79;76.79;101090.13;4966476;28;20125;-48
2022/03/01 00:27:00;;;;;;;5.10;1.60;;;;;;;6.75;76.60;101085.72;4965648;28;20471;-52
2022/03/01 00:29:26;;;;;;;5.03;2.75;;;;;;;6.77;77.07;101089.19;4960486;28;20054;-51
2022/03/01 00:31:53;;;;;;;4.78;3.05;;;;;;;6.76;76.48;101090.03;4964788;28;20623;-52
2022/03/01 00:34:20;;;;;;;3.45;2.72;;;;;;;6.71;76.84;101100.19;4961975;28;20055;-48
2022/03/01 00:36:46;;;;;;;7.55;2.92;;;;;;;6.71;76.87;101104.44;4965034;28;20098;-49
2022/03/01 00:39:13;;;;;;;4.55;2.72;;;;;;;6.73;76.67;101102.81;4968525;28;20101;-50
2022/03/01 00:41:40;;;;;;;5.10;2.65;;;;;;;6.71;77.02;101099.31;4964907;28;20059;-48
2022/03/01 00:44:06;;;;;;;5.63;2.60;;;;;;;6.69;78.01;101107.88;4964183;28;20517;-50
2022/03/01 00:46:33;;;;;;;4.75;2.03;;;;;;;6.69;77.55;101110.44;4963507;28;20055;-51
2022/03/01 00:49:00;;;;;;;3.78;2.42;;;;;;;6.66;76.61;101112.06;4968776;28;20047;-47
2022/03/01 00:51:28;;;;;;;4.40;2.58;;;;;;;6.65;76.77;101116.31;4962170;28;20046;-46
2022/03/01 00:53:55;;;;;;;3.42;1.85;;;;;;;6.65;77.09;101120.59;4966429;28;20051;-48
2022/03/01 00:56:21;;;;;;;3.50;2.47;;;;;;;6.61;76.65;101119.63;4964987;28;20522;-52
2022/03/01 00:58:48;;;;;;;5.13;2.22;;;;;;;6.59;76.30;101120.41;5001068;28;20047;-50
2022/03/01 01:01:15;;;;;;;5.45;1.85;;;;;;;6.59;77.93;101129.03;4967258;28;20078;-49
2022/03/01 01:03:42;;;;;;;4.45;1.85;;;;;;;6.59;77.66;101130.72;4969271;28;20478;-46
2022/03/01 01:06:09;;;;;;;4.95;2.03;;;;;;;6.58;77.00;101141.84;4968343;28;20051;-50
2022/03/01 01:08:35;;;;;;;5.10;0.88;;;;;;;6.58;77.07;101137.56;4966399;28;20579;-48
2022/03/01 01:11:02;;;;;;;5.47;2.67;;;;;;;6.56;77.21;101132.34;4966166;28;20561;-50
2022/03/01 01:13:30;;;;;;;4.32;2.63;;;;;;;6.55;77.26;101140.03;4964905;28;20050;-47
2022/03/01 01:15:57;;;;;;;2.80;2.15;;;;;;;6.54;76.99;101139.16;4968044;28;20490;-47
2022/03/01 01:18:25;;;;;;;5.90;2.88;;;;;;;6.54;76.22;101141.75;4966537;28;20050;-48
2022/03/01 01:20:53;;;;;;;5.28;2.28;;;;;;;6.55;76.33;101140.03;4965660;28;20489;-50
2022/03/01 01:23:21;;;;;;;5.63;3.67;;;;;;;6.55;76.87;101140.03;4964805;28;20058;-50
2022/03/01 01:25:49;;;;;;;3.72;2.53;;;;;;;6.54;77.34;101134.03;4963822;28;20181;-48
2022/03/01 01:28:18;;;;;;;10.48;2.65;;;;;;;6.54;76.96;101139.16;4970088;28;20070;-49
2022/03/01 01:30:45;;;;;;;9.32;2.33;;;;;;;6.55;76.57;101145.16;4964538;28;20805;-47
2022/03/01 01:33:16;;;;;;;3.85;2.10;;;;;;;6.53;76.11;101137.44;4984145;28;20533;-47
2022/03/01 01:35:43;;;;;;;6.55;2.20;;;;;;;6.54;76.27;101133.13;4967224;28;20054;-47
2022/03/01 01:38:09;;;;;;;4.13;1.33;;;;;;;6.54;77.01;101140.84;4963945;28;21163;-47
2022/03/01 01:40:36;;;;;;;6.88;2.63;;;;;;;6.52;77.91;101124.50;4966031;28;20054;-50
2022/03/01 01:43:04;;;;;;;8.10;3.95;;;;;;;6.54;77.00;101133.13;4967151;28;20079;-50
2022/03/01 01:45:32;;;;;;;4.97;2.40;;;;;;;6.50;76.38;101131.28;4967445;28;20109;-48
2022/03/01 01:48:00;;;;;;;5.63;2.10;;;;;;;6.51;76.27;101136.50;4967074;28;20134;-46
2022/03/01 01:50:29;;;;;;;9.07;2.67;;;;;;;6.51;76.56;101140.75;4967092;28;20047;-46
2022/03/01 01:52:56;;;;;;;9.27;3.00;;;;;;;6.49;76.77;101134.69;4964889;28;20268;-45
2022/03/01 01:55:25;;;;;;;4.53;2.55;;;;;;;6.50;77.24;101139.00;4964235;28;20439;-50
2022/03/01 01:57:57;;;;;;;11.65;3.63;;;;;;;6.48;77.67;101138.97;4966592;28;20054;-47
2022/03/01 02:00:24;;;;;;;5.38;2.42;;;;;;;6.48;77.64;101138.09;4962514;28;20050;-50
2022/03/01 02:02:51;;;;;;;6.80;2.60;;;;;;;6.47;76.14;101133.75;4968341;28;20093;-48
2022/03/01 02:05:18;;;;;;;8.65;2.88;;;;;;;6.47;77.44;101136.34;4964063;28;20085;-45
2022/03/01 02:07:47;;;;;;;8.45;2.85;;;;;;;6.46;76.65;101150.03;4966661;28;20051;-46
2022/03/01 02:10:14;;;;;;;9.25;3.20;;;;;;;6.44;77.96;101152.56;4966240;28;20051;-48
2022/03/01 02:12:41;;;;;;;6.25;2.92;;;;;;;6.43;76.17;101143.09;4964578;28;20161;-47
2022/03/01 02:15:08;;;;;;;6.95;3.53;;;;;;;6.43;77.11;101150.81;4967318;28;20546;-50
2022/03/01 02:17:38;;;;;;;4.50;2.15;;;;;;;6.40;77.86;101146.47;4966965;28;20055;-44
2022/03/01 02:20:08;;;;;;;6.43;3.38;;;;;;;6.40;77.79;101156.75;4966544;28;20046;-47
2022/03/01 02:22:35;;;;;;;9.70;3.75;;;;;;;6.40;76.77;101161.91;4966728;28;20047;-45
2022/03/01 02:25:01;;;;;;;7.88;2.97;;;;;;;6.36;77.90;101154.91;4969575;28;20055;-48
2022/03/01 02:27:29;;;;;;;13.02;3.88;;;;;;;6.38;77.49;101163.53;4965500;28;20062;-51
2022/03/01 02:29:56;;;;;;;16.52;4.78;;;;;;;6.39;78.22;101160.13;4962542;28;20055;-46
2022/03/01 02:32:23;;;;;;;6.95;3.20;;;;;;;6.38;76.73;101160.97;4965175;28;20106;-47
2022/03/01 02:34:49;;;;;;;9.15;3.75;;;;;;;6.39;77.53;101159.28;4965133;28;20069;-47
2022/03/01 02:37:16;;;;;;;12.82;3.63;;;;;;;6.38;76.72;101158.38;4965607;28;20054;-54
2022/03/01 02:39:43;;;;;;;11.70;4.22;;;;;;;6.38;76.93;101158.38;4963535;28;20047;-49
2022/03/01 02:42:10;;;;;;;8.77;3.35;;;;;;;6.39;76.71;101154.97;4962828;28;20647;-47
2022/03/01 02:44:37;;;;;;;13.82;4.50;;;;;;;6.40;76.46;101168.72;4964847;28;20046;-48
2022/03/01 02:47:04;;;;;;;9.98;4.40;;;;;;;6.39;77.63;101170.41;4968636;28;20054;-48
2022/03/01 02:49:31;;;;;;;11.05;4.57;;;;;;;6.38;77.49;101173.81;4964772;28;20078;-48
2022/03/01 02:51:57;;;;;;;17.25;5.85;;;;;;;6.39;76.78;101173.00;4966785;28;20069;-45
2022/03/01 02:54:24;;;;;;;10.50;5.35;;;;;;;6.39;77.48;101178.13;4964260;28;20063;-50
2022/03/01 02:56:51;;;;;;;9.00;4.35;;;;;;;6.39;76.54;101175.56;4965923;28;20085;-51
2022/03/01 02:59:17;;;;;;;14.65;5.65;;;;;;;6.39;78.27;101179.84;4964621;28;20200;-46
2022/03/01 03:01:44;;;;;;;11.05;5.25;;;;;;;6.37;76.91;101187.53;4965978;28;20117;-52
2022/03/01 03:04:10;;;;;;;12.43;4.80;;;;;;;6.40;78.18;101191.91;4964104;28;20154;-48
2022/03/01 03:06:38;;;;;;;15.73;6.00;;;;;;;6.41;76.94;101186.81;4967296;28;20051;-46
2022/03/01 03:09:04;;;;;;;9.82;5.07;;;;;;;6.41;77.10;101183.34;4965831;28;20109;-46
2022/03/01 03:11:31;;;;;;;11.68;6.05;;;;;;;6.42;78.25;101169.66;4968506;28;20720;-49
2022/03/01 03:13:57;;;;;;;9.05;4.35;;;;;;;6.39;78.42;101170.41;4966769;28;20677;-50
2022/03/01 03:16:27;;;;;;;15.57;6.57;;;;;;;6.40;77.61;101182.50;4964773;28;20063;-48
2022/03/01 03:18:53;;;;;;;7.88;3.22;;;;;;;6.40;77.57;101187.63;4966985;28;21341;-47
2022/03/01 03:21:20;;;;;;;9.75;4.80;;;;;;;6.42;77.35;101185.97;4961737;28;21106;-49
2022/03/01 03:23:46;;;;;;;13.63;6.07;;;;;;;6.43;77.76;101177.41;4967840;28;20051;-52
2022/03/01 03:26:13;;;;;;;13.68;5.15;;;;;;;6.43;76.73;101185.13;4965189;28;20113;-53
2022/03/01 03:28:40;;;;;;;15.20;4.90;;;;;;;6.40;77.57;101182.50;4962672;28;20130;-47
2022/03/01 03:31:07;;;;;;;11.93;5.57;;;;;;;6.39;78.47;101183.28;4969655;28;20051;-45
2022/03/01 03:33:34;;;;;;;13.15;6.05;;;;;;;6.42;77.45;101185.97;4962978;28;20054;-46
2022/03/01 03:36:00;;;;;;;13.23;3.80;;;;;;;6.41;78.29;101189.38;4962447;28;20720;-49
2022/03/01 03:38:27;;;;;;;12.80;5.10;;;;;;;6.41;77.99;101189.38;4961507;28;20055;-46
2022/03/01 03:40:53;;;;;;;10.02;4.75;;;;;;;6.42;76.58;101188.53;4965054;28;20058;-50
2022/03/01 03:43:20;;;;;;;13.57;6.05;;;;;;;6.41;77.16;101181.66;4963884;28;20050;-49
2022/03/01 03:45:47;;;;;;;12.57;4.03;;;;;;;6.42;77.33;101190.25;4961179;28;20532;-49
2022/03/01 03:48:14;;;;;;;14.95;5.63;;;;;;;6.42;77.48;101190.25;4991072;28;20066;-47
2022/03/01 03:50:41;;;;;;;17.33;5.10;;;;;;;6.42;78.09;101190.25;4967056;28;20109;-57
2022/03/01 03:53:07;;;;;;;15.80;5.88;;;;;;;6.39;76.85;101179.84;4959274;28;20100;-48
2022/03/01 03:55:34;;;;;;;14.27;5.72;;;;;;;6.39;77.58;101180.72;4959612;28;20050;-48
2022/03/01 03:58:00;;;;;;;13.23;5.90;;;;;;;6.39;77.73;101191.00;4963689;28;20103;-46
2022/03/01 04:00:27;;;;;;;12.60;5.43;;;;;;;6.38;77.05;101204.72;4961727;28;20125;-51
2022/03/01 04:02:58;;;;;;;14.40;5.78;;;;;;;6.37;77.51;101207.22;4958688;28;20063;-48
2022/03/01 04:05:24;;;;;;;15.57;6.38;;;;;;;6.36;77.63;101201.22;4961421;28;20051;-50
2022/03/01 04:07:51;;;;;;;17.38;5.57;;;;;;;6.35;77.47;101209.75;4964353;28;20055;-46
2022/03/01 04:10:18;;;;;;;13.13;5.47;;;;;;;6.34;76.82;101208.00;4965215;28;20059;-45
2022/03/01 04:12:45;;;;;;;14.93;6.13;;;;;;;6.34;77.07;101222.56;4965082;28;20100;-46
2022/03/01 04:15:12;;;;;;;14.10;6.10;;;;;;;6.30;77.66;101221.59;4962026;28;20054;-45
2022/03/01 04:17:40;;;;;;;13.60;6.18;;;;;;;6.30;77.62;101224.16;4963094;28;20070;-45
2022/03/01 04:20:07;;;;;;;11.05;5.28;;;;;;;6.30;76.98;101227.63;4965529;28;20054;-49
2022/03/01 04:22:34;;;;;;;14.65;5.80;;;;;;;6.30;78.00;101226.75;4962590;28;20070;-49
2022/03/01 04:25:04;;;;;;;17.75;6.43;;;;;;;6.27;78.34;101221.47;4965181;28;21256;-46
2022/03/01 04:27:31;;;;;;;15.43;6.05;;;;;;;6.27;77.18;101232.66;4967094;28;20707;-47
2022/03/01 04:29:57;;;;;;;14.30;5.97;;;;;;;6.26;76.90;101230.03;4970039;28;20090;-49
2022/03/01 04:32:24;;;;;;;14.80;6.25;;;;;;;6.24;77.93;101236.81;4966418;28;20058;-48
2022/03/01 04:34:50;;;;;;;15.93;6.10;;;;;;;6.22;76.92;101243.63;4970027;28;20105;-44
2022/03/01 04:37:17;;;;;;;16.75;6.53;;;;;;;6.20;76.57;101247.81;4967222;28;20122;-47
2022/03/01 04:39:44;;;;;;;16.70;5.88;;;;;;;6.19;77.72;101238.38;4965769;28;20050;-48
2022/03/01 04:42:15;;;;;;;16.17;6.32;;;;;;;6.16;77.54;101234.88;4969199;28;20146;-46
2022/03/01 04:44:42;;;;;;;17.05;7.22;;;;;;;6.14;76.98;101241.66;4968603;28;20042;-48
2022/03/01 04:47:08;;;;;;;13.35;7.07;;;;;;;6.12;77.04;101233.00;4985542;28;20047;-49
2022/03/01 04:49:35;;;;;;;13.65;6.72;;;;;;;6.08;77.15;101238.84;4965699;28;20554;-48
2022/03/01 04:52:02;;;;;;;13.82;6.10;;;;;;;6.03;77.80;101228.44;4970621;28;20772;-47
2022/03/01 04:54:29;;;;;;;15.88;6.60;;;;;;;6.02;76.95;101230.91;4966501;28;20055;-48
2022/03/01 04:56:55;;;;;;;19.33;6.40;;;;;;;5.99;76.68;101236.81;4968041;28;20046;-45
2022/03/01 04:59:22;;;;;;;17.58;6.10;;;;;;;6.00;77.54;101242.81;4969229;28;20094;-47
2022/03/01 05:01:49;;;;;;;16.95;6.82;;;;;;;5.99;76.91;101241.09;4968436;28;20415;-48
2022/03/01 05:04:16;;;;;;;17.50;6.20;;;;;;;5.96;77.76;101247.00;4970390;28;20113;-50
2022/03/01 05:06:44;;;;;;;18.55;6.38;;;;;;;5.97;76.92;101248.75;4966334;28;20117;-48
2022/03/01 05:09:12;;;;;;;17.08;5.97;;;;;;;5.95;76.76;101245.25;4970005;28;20050;-49
2022/03/01 05:11:38;;;;;;;15.40;5.88;;;;;;;5.95;78.07;101246.94;4967731;28;20098;-51
2022/03/01 05:14:05;;;;;;;12.70;5.32;;;;;;;5.92;77.92;101235.72;4967846;28;20102;-44
2022/03/01 05:16:33;;;;;;;16.48;7.82;;;;;;;5.95;77.62;101239.22;4968768;28;20110;-47
2022/03/01 05:19:00;;;;;;;12.82;5.40;;;;;;;5.88;77.04;101233.84;4969400;28;20054;-50
2022/03/01 05:21:28;;;;;;;13.43;6.05;;;;;;;5.87;77.10;101242.41;4962485;28;20042;-49
2022/03/01 05:23:55;;;;;;;16.00;6.82;;;;;;;5.85;77.76;101238.91;4966619;28;20113;-48
2022/03/01 05:26:21;;;;;;;11.70;5.43;;;;;;;5.85;77.19;101241.47;4969582;28;20050;-45
2022/03/01 05:28:48;;;;;;;15.90;5.97;;;;;;;5.83;76.69;101235.38;4965305;28;20078;-50
2022/03/01 05:31:15;;;;;;;17.20;6.60;;;;;;;5.81;77.32;101231.88;4966229;28;20145;-50
2022/03/01 05:33:42;;;;;;;15.23;6.07;;;;;;;5.82;77.37;101237.91;4965140;28;20069;-47
2022/03/01 05:36:09;;;;;;;15.73;4.57;;;;;;;5.76;76.75;101248.84;4967748;28;20502;-48
2022/03/01 05:38:39;;;;;;;18.52;6.18;;;;;;;5.76;77.22;101236.88;4965007;28;20074;-49
2022/03/01 05:41:05;;;;;;;18.25;7.80;;;;;;;5.72;76.96;101242.72;4966880;28;20070;-48
2022/03/01 05:43:32;;;;;;;17.42;7.10;;;;;;;5.69;77.91;101246.84;4968570;28;20106;-46
2022/03/01 05:45:59;;;;;;;15.63;7.20;;;;;;;5.65;77.14;101249.31;4965831;28;20434;-44
2022/03/01 05:48:26;;;;;;;16.45;5.88;;;;;;;5.63;77.30;101253.53;4966454;28;20097;-45
2022/03/01 05:50:54;;;;;;;14.60;6.72;;;;;;;5.62;77.54;101261.19;4969147;28;20046;-47
2022/03/01 05:53:21;;;;;;;18.13;6.07;;;;;;;5.61;77.23;101262.88;4965772;28;20078;-48
2022/03/01 05:55:47;;;;;;;15.90;5.38;;;;;;;5.60;77.31;101263.69;4965945;28;20059;-48
2022/03/01 05:58:15;;;;;;;10.40;4.60;;;;;;;5.58;78.12;101260.22;4969049;28;20050;-47
2022/03/01 06:00:41;;;;;;;10.98;5.45;;;;;;;5.60;77.66;101249.97;4966882;28;20047;-44
2022/03/01 06:03:09;;;;;;;15.75;6.55;;;;;;;5.59;77.81;101256.81;4964510;28;20047;-48
2022/03/01 06:05:35;;;;;;;15.18;6.43;;;;;;;5.57;77.36;101266.16;4965496;28;20097;-46
2022/03/01 06:08:03;;;;;;;17.73;6.68;;;;;;;5.53;77.35;101264.28;4966310;28;20047;-48
2022/03/01 06:10:30;;;;;;;20.02;6.40;;;;;;;5.52;76.92;101267.69;4963967;28;20487;-48
2022/03/01 06:12:56;;;;;;;18.55;6.68;;;;;;;5.50;76.96;101261.59;4979320;28;20035;-48
2022/03/01 06:15:23;;;;;;;16.90;6.20;;;;;;;5.48;77.53;101264.13;4967274;28;20058;-48
2022/03/01 06:17:50;;;;;;;16.17;7.15;;;;;;;5.49;77.31;101270.13;4963075;28;20142;-47
2022/03/01 06:20:17;;;;;;;22.15;7.38;;;;;;;5.46;77.88;101276.03;4964263;28;20112;-47
2022/03/01 06:22:44;;;;;;;17.98;7.22;;;;;;;5.43;77.96;101275.06;4968889;28;20054;-46
2022/03/01 06:25:11;;;;;;;17.42;6.90;;;;;;;5.44;77.58;101281.94;4967144;28;20058;-48
2022/03/01 06:27:39;;;;;;;19.30;6.75;;;;;;;5.42;77.62;101275.84;4996680;28;20051;-46
2022/03/01 06:30:07;;;;;;;13.25;6.30;;;;;;;5.43;77.48;101273.34;4963951;28;20483;-45
2022/03/01 06:32:34;;;;;;;18.88;6.55;;;;;;;5.43;78.28;101278.47;4981744;28;20047;-45
2022/03/01 06:35:00;;;;;;;17.70;6.15;;;;;;;5.44;77.75;101287.06;4968286;28;20505;-45
2022/03/01 06:37:37;;;;;;;19.48;9.55;;;;;;;5.43;77.32;101290.47;4965126;28;20133;-50
2022/03/01 06:40:06;;;;;;;22.73;7.43;;;;;;;5.46;78.37;101288.00;4970671;28;20054;-47
2022/03/01 06:42:34;;;;;;;19.42;8.85;;;;;;;5.45;77.55;101300.00;4963583;28;20043;-50
2022/03/01 06:45:01;;;;;;;17.00;5.43;;;;;;;5.45;77.19;101309.38;4966263;28;20725;-45
2022/03/01 06:47:28;;;;;;;18.92;7.30;;;;;;;5.47;77.76;101320.59;4963506;28;20055;-47
2022/03/01 06:49:54;;;;;;;22.45;8.98;;;;;;;5.48;78.08;101325.81;4965225;28;20077;-46
2022/03/01 06:52:21;;;;;;;23.42;9.32;;;;;;;5.47;77.04;101328.31;4966873;28;20051;-50
2022/03/01 06:54:48;;;;;;;17.95;8.18;;;;;;;5.47;77.45;101330.88;4964264;28;20051;-46
2022/03/01 06:57:16;;;;;;;21.75;7.93;;;;;;;5.45;77.29;101333.38;4968149;28;20039;-48
2022/03/01 06:59:42;;;;;;;17.13;6.93;;;;;;;5.45;77.29;101335.97;4961742;28;20047;-47
2022/03/01 07:02:09;;;;;;;14.05;5.57;;;;;;;5.46;77.77;101349.66;4960200;28;20619;-47
2022/03/01 07:04:36;;;;;;;15.10;6.65;;;;;;;5.40;77.54;101364.03;4966645;28;20051;-48
2022/03/01 07:07:03;;;;;;;15.98;6.90;;;;;;;5.41;76.95;101364.94;4967720;28;20062;-52
2022/03/01 07:09:29;;;;;;;13.98;5.72;;;;;;;5.38;77.08;101368.22;4967261;28;20057;-46
2022/03/01 07:11:56;;;;;;;19.63;7.25;;;;;;;5.38;77.94;101386.22;4968383;28;20047;-48
2022/03/01 07:14:23;;;;;;;18.95;6.93;;;;;;;5.36;77.30;101377.59;4962894;28;20129;-46
2022/03/01 07:16:49;;;;;;;15.93;6.63;;;;;;;5.39;77.76;101377.72;4965014;28;20051;-50
2022/03/01 07:19:16;;;;;;;13.93;6.03;;;;;;;5.35;77.35;101380.97;4963431;28;20078;-46
2022/03/01 07:21:43;;;;;;;14.80;5.85;;;;;;;5.37;77.64;101384.47;4967346;28;20104;-44
2022/03/01 07:24:10;;;;;;;19.60;7.30;;;;;;;5.33;77.69;101387.72;4965740;28;20098;-46
2022/03/01 07:26:38;;;;;;;20.60;6.28;;;;;;;5.32;77.39;101385.97;4964731;28;20390;-46
2022/03/01 07:29:04;;;;;;;16.85;7.35;;;;;;;5.32;77.09;101380.84;4966404;28;20046;-48
2022/03/01 07:31:31;;;;;;;14.43;6.45;;;;;;;5.33;77.50;101387.72;4966258;28;20738;-47
2022/03/01 07:33:58;;;;;;;17.48;6.43;;;;;;;5.33;77.37;101392.88;4966601;28;20047;-46
2022/03/01 07:36:25;;;;;;;16.50;5.60;;;;;;;5.35;76.87;101391.25;4961432;28;20062;-45
2022/03/01 07:38:51;;;;;;;17.60;6.03;;;;;;;5.35;76.96;101391.25;4966358;28;20101;-46
2022/03/01 07:41:18;;;;;;;24.55;7.18;;;;;;;5.37;77.18;101394.75;4960905;28;20124;-46
2022/03/01 07:43:46;;;;;;;15.05;5.97;;;;;;;5.36;76.72;101386.97;4962040;28;20423;-49
2022/03/01 07:46:13;;;;;;;19.10;6.22;;;;;;;5.37;77.57;101393.88;4962828;28;20051;-46
2022/03/01 07:48:41;;;;;;;11.98;5.78;;;;;;;5.35;77.93;101391.25;4961261;28;20106;-45
2022/03/01 07:51:08;;;;;;;13.05;5.68;;;;;;;5.35;77.55;101395.50;4957840;28;20053;-46
2022/03/01 07:53:35;;;;;;;15.25;5.72;;;;;;;5.34;76.75;101399.75;4973412;28;20105;-46
2022/03/01 07:56:03;;;;;;;14.00;5.70;;;;;;;5.35;76.71;101406.66;4964120;28;20055;-47
2022/03/01 07:58:29;;;;;;;12.02;5.95;;;;;;;5.33;76.49;101392.88;4959724;28;20598;-46
2022/03/01 08:00:56;;;;;;;10.98;5.30;;;;;;;5.33;76.58;101398.00;4958021;28;20121;-46
2022/03/01 08:03:23;;;;;;;14.40;5.40;;;;;;;5.34;76.78;101398.91;4961744;28;20045;-45
2022/03/01 08:05:52;;;;;;;14.32;6.15;;;;;;;5.35;76.61;101401.53;4959176;28;20055;-47
2022/03/01 08:08:19;;;;;;;14.00;6.05;;;;;;;5.34;76.65;101394.59;4961050;28;20059;-45
2022/03/01 08:10:46;;;;;;;9.57;5.10;;;;;;;5.33;77.33;101392.88;4961251;28;20055;-46
2022/03/01 08:13:33;;;;;;;11.82;5.15;;;;;;;5.31;77.38;101389.38;4960440;28;20500;-47
2022/03/01 08:16:02;;;;;;;13.20;4.00;;;;;;;5.30;76.64;101391.88;4994232;28;20427;-47
2022/03/01 08:18:29;;;;;;;12.35;4.45;;;;;;;5.24;76.20;101379.66;4959292;28;20054;-46
2022/03/01 08:20:57;;;;;;;14.07;4.18;;;;;;;5.22;77.13;101383.84;4961104;28;20102;-48
2022/03/01 08:23:25;;;;;;;15.25;4.25;;;;;;;5.18;77.11;101381.97;4960672;28;20522;-45
2022/03/01 08:25:52;;;;;;;14.38;4.65;;;;;;;5.21;76.49;101370.16;4961156;28;20054;-43
2022/03/01 08:28:19;;;;;;;11.63;5.28;;;;;;;5.22;76.24;101376.13;4960586;28;20109;-48
2022/03/01 08:30:46;;;;;;;11.35;3.38;;;;;;;5.22;76.33;101383.84;4963480;28;20106;-50
2022/03/01 08:33:16;;;;;;;15.70;4.05;;;;;;;5.24;76.40;101371.94;4966761;28;20055;-43
2022/03/01 08:35:43;;;;;;;8.38;3.47;;;;;;;5.25;77.16;101390.00;4965550;28;20121;-49
2022/03/01 08:38:10;;;;;;;8.80;4.03;;;;;;;5.28;77.04;101394.38;4967953;28;20051;-47
2022/03/01 08:40:38;;;;;;;17.02;4.47;;;;;;;5.32;76.96;101388.56;4970509;28;20051;-48
2022/03/01 08:43:07;;;;;;;12.07;2.40;;;;;;;5.37;76.28;101387.03;4966385;28;20627;-50
2022/03/01 08:45:34;;;;;;;14.50;4.38;;;;;;;5.46;77.00;101403.63;4965131;28;20055;-47
2022/03/01 08:48:01;;;;;;;7.55;3.58;;;;;;;5.52;76.06;101398.75;4965624;28;20047;-44
2022/03/01 08:50:28;;;;;;;10.00;4.35;;;;;;;5.59;76.59;101411.03;4958618;28;20051;-48
2022/03/01 08:53:07;;;;;;;11.35;3.35;;;;;;;5.74;76.45;101415.03;4966696;28;20461;-49
2022/03/01 08:55:34;;;;;;;9.02;3.45;;;;;;;5.85;76.97;101412.88;4965311;28;20058;-45
2022/03/01 08:58:01;;;;;;;7.68;4.40;;;;;;;6.09;75.67;101418.13;4966649;28;20675;-44
2022/03/01 09:00:28;;;;;;;8.75;3.88;;;;;;;6.29;75.48;101420.56;4963600;28;20047;-50
2022/03/01 09:02:55;;;;;;;8.13;3.25;;;;;;;6.38;74.03;101414.88;4961463;28;20047;-45
2022/03/01 09:05:22;;;;;;;12.60;3.72;;;;;;;6.62;75.58;101420.00;4968476;28;20047;-47
2022/03/01 09:07:49;;;;;;;9.32;3.83;;;;;;;7.03;74.85;101421.44;4966106;28;20129;-50
2022/03/01 09:10:21;;;;;;;9.32;3.85;;;;;;;7.24;73.82;101418.69;4965528;28;20054;-49
2022/03/01 09:12:50;;;;;;;11.43;4.00;;;;;;;7.30;72.24;101426.59;4963666;28;20066;-49
2022/03/01 09:15:17;;;;;;;10.85;2.38;;;;;;;7.43;72.81;101420.16;4968075;28;20423;-47
2022/03/01 09:17:45;;;;;;;10.70;3.30;;;;;;;7.56;72.56;101428.28;4969072;28;20053;-46
2022/03/01 09:20:12;;;;;;;10.75;3.58;;;;;;;7.62;70.65;101428.50;4966149;28;20067;-49
2022/03/01 09:22:40;;;;;;;12.00;3.38;;;;;;;7.74;70.92;101428.00;4966293;28;20062;-47
2022/03/01 09:25:07;;;;;;;7.80;3.05;;;;;;;7.95;71.19;101425.22;4969453;28;20062;-47
2022/03/01 09:27:33;;;;;;;12.27;4.30;;;;;;;8.10;69.95;101429.06;4984060;28;20051;-44
2022/03/01 09:30:01;;;;;;;7.65;1.98;;;;;;;8.17;70.14;101428.41;4968536;28;20454;-48
2022/03/01 09:32:27;;;;;;;4.50;2.97;;;;;;;8.10;69.41;101423.91;4966178;28;20039;-50
2022/03/01 09:34:55;;;;;;;6.00;3.33;;;;;;;8.31;69.74;101417.63;4966375;28;20055;-48
2022/03/01 09:37:22;;;;;;;7.07;3.38;;;;;;;8.63;68.54;101417.69;4969628;28;20050;-48
2022/03/01 09:39:49;;;;;;;11.45;3.00;;;;;;;8.71;68.29;101416.19;4959830;28;20055;-47
2022/03/01 09:42:18;;;;;;;6.10;3.33;;;;;;;8.84;68.22;101421.66;4957288;28;21618;-47
2022/03/01 09:44:44;;;;;;;8.30;3.45;;;;;;;8.99;68.11;101422.06;4956598;28;20051;-49
2022/03/01 09:47:11;;;;;;;7.70;3.05;;;;;;;9.04;68.18;101423.91;4959551;28;20043;-46
2022/03/01 09:49:38;;;;;;;8.38;2.63;;;;;;;8.90;66.57;101421.84;4959043;28;20058;-49
2022/03/01 09:52:12;;;;;;;9.75;2.78;;;;;;;8.95;68.27;101420.25;4959178;28;20062;-58
2022/03/01 09:54:39;;;;;;;9.70;3.13;;;;;;;9.00;67.23;101418.69;4957766;28;20101;-49
2022/03/01 09:57:06;;;;;;;7.32;2.78;;;;;;;8.99;66.38;101410.88;4961905;28;20141;-47
2022/03/01 09:59:35;;;;;;;6.40;2.75;;;;;;;8.95;67.17;101417.66;4959761;28;20042;-48
2022/03/01 10:02:02;;;;;;;8.10;2.55;;;;;;;8.84;67.31;101416.50;4958063;28;20053;-51
2022/03/01 10:04:29;;;;;;;5.93;2.22;;;;;;;8.66;67.48;101415.19;4949288;28;20150;-46
2022/03/01 10:06:55;;;;;;;5.88;2.80;;;;;;;8.48;66.85;101424.13;4963917;28;20109;-49
2022/03/01 10:09:26;;;;;;;5.45;2.63;;;;;;;8.45;67.79;101429.22;4953785;28;20050;-50
2022/03/01 10:11:53;;;;;;;5.28;2.28;;;;;;;8.41;68.03;101426.50;4960871;28;20051;-46
2022/03/01 10:14:29;;;;;;;8.40;2.55;;;;;;;8.32;67.25;101424.53;4968631;28;20061;-48
2022/03/01 10:16:56;;;;;;;6.65;2.33;;;;;;;8.28;68.45;101430.44;4961702;28;20050;-46
2022/03/01 10:19:23;;;;;;;5.47;2.75;;;;;;;8.22;68.25;101429.44;4964650;28;20142;-47
2022/03/01 10:22:00;;;;;;;11.60;2.58;;;;;;;8.19;68.16;101436.22;4960942;28;20105;-45
2022/03/01 10:24:27;;;;;;;;;;;;;;;8.05;68.35;101443.53;4963012;28;20137;-48
2022/03/01 10:26:58;;;;;;;6.18;2.55;;;;;;;8.08;69.20;101425.56;4970011;28;19976;-47
2022/03/01 10:29:46;;;;;;;7.95;2.60;;;;;;;8.04;68.32;101431.47;4964040;28;20053;-45
2022/03/01 10:32:13;;;;;;;9.32;2.95;;;;;;;8.04;69.54;101424.59;4959959;28;20070;-49
2022/03/01 10:35:01;;;;;;;12.45;2.63;;;;;;;8.03;69.53;101419.38;4971229;28;20494;-47
2022/03/01 10:37:30;;;;;;;7.63;2.92;;;;;;;7.97;68.35;101426.13;4963885;28;20503;-47
2022/03/01 10:40:19;;;;;;;7.90;2.33;;;;;;;7.92;68.87;101416.50;4966912;28;20484;-50
2022/03/01 10:42:59;;;;;;;8.10;2.55;;;;;;;7.92;69.20;101427.69;4965674;28;20187;-48
2022/03/01 10:45:44;;;;;;;8.05;2.35;;;;;;;7.89;69.64;101432.75;4966751;28;20110;-50
2022/03/01 10:48:22;;;;;;;6.80;1.73;;;;;;;7.91;69.77;101425.91;4968344;28;20712;-50
2022/03/01 10:50:57;;;;;;;11.98;2.65;;;;;;;7.92;68.84;101431.97;4983300;28;20058;-50
2022/03/01 10:53:30;;;;;;;10.25;3.15;;;;;;;7.94;69.64;101426.03;4959826;28;20174;-46
2022/03/01 10:56:04;;;;;;;7.43;2.30;;;;;;;8.07;70.14;101426.41;4956727;28;20047;-46
2022/03/01 10:58:31;;;;;;;8.75;2.60;;;;;;;8.24;69.30;101429.47;4966278;28;20050;-48
2022/03/01 11:00:58;;;;;;;4.95;2.67;;;;;;;8.33;69.67;101444.34;4956365;28;20054;-48
2022/03/01 11:03:25;;;;;;;5.95;2.17;;;;;;;8.45;69.46;101439.53;4957584;28;20046;-46
2022/03/01 11:05:54;;;;;;;7.95;2.15;;;;;;;8.42;67.92;101436.91;4959673;28;20063;-46
2022/03/01 11:08:42;;;;;;;8.68;2.20;;;;;;;8.42;69.50;101429.16;4959253;28;20065;-47
2022/03/01 11:11:10;;;;;;;10.18;2.05;;;;;;;8.48;69.31;101434.47;4960059;28;20054;-48
2022/03/01 11:13:40;;;;;;;5.88;1.10;;;;;;;8.43;68.67;101436.06;4969356;28;20423;-49
2022/03/01 11:16:35;;;;;;;7.63;2.38;;;;;;;8.44;68.64;101431.78;4962080;28;20468;-44
2022/03/01 11:19:30;;;;;;;6.63;2.60;;;;;;;8.34;68.74;101435.78;4964122;28;20051;-50
2022/03/01 11:22:02;;;;;;;5.10;2.45;;;;;;;8.27;69.61;101421.81;4962492;28;20063;-49
2022/03/01 11:24:29;;;;;;;7.25;2.35;;;;;;;8.24;68.63;101426.88;4960219;28;20050;-46
2022/03/01 11:27:05;;;;;;;7.78;2.55;;;;;;;8.23;69.30;101433.78;4965294;28;20075;-47
2022/03/01 11:29:38;;;;;;;11.10;3.28;;;;;;;8.26;69.02;101430.41;4964344;28;20058;-49
2022/03/01 11:32:12;;;;;;;5.20;1.42;;;;;;;8.27;69.75;101418.38;4965862;28;20117;-52